Time;durP1;ratioP1;P1;durP2;ratioP2;P2;SDS_P1;SDS_P2;PMS_P1;PMS_P2;Temp;Humidity;BMP_temperature;BMP_pressure;BME280_temperature;BME280_humidity;BME280_pressure;Samples;Min_cycle;Max_cycle;Signal;HPM_P1;HPM_P2
2022/08/03 00:01:41;;;;;;;5.47;2.15;;;21.10;60.80;;;;;;4873355;29;20133;-64
2022/08/03 00:04:10;;;;;;;5.30;1.95;;;21.10;61.10;;;;;;4871504;29;20127;-64
2022/08/03 00:06:39;;;;;;;4.82;2.08;;;21.00;61.30;;;;;;4875901;29;20048;-63
2022/08/03 00:09:06;;;;;;;3.65;2.25;;;20.90;61.50;;;;;;4874286;29;20546;-62
2022/08/03 00:11:33;;;;;;;3.47;1.90;;;20.90;61.50;;;;;;4873876;29;20136;-64
2022/08/03 00:14:00;;;;;;;2.55;1.50;;;20.90;61.50;;;;;;4876190;29;20053;-62
2022/08/03 00:16:28;;;;;;;3.63;1.50;;;20.90;61.50;;;;;;4879656;29;20119;-64
2022/08/03 00:18:55;;;;;;;4.53;1.85;;;20.90;61.70;;;;;;4873580;29;20045;-63
2022/08/03 00:21:22;;;;;;;3.55;1.80;;;20.80;61.80;;;;;;4869243;29;20504;-63
2022/08/03 00:23:50;;;;;;;3.63;1.60;;;20.70;61.90;;;;;;4872059;29;20045;-61
2022/08/03 00:26:18;;;;;;;2.92;1.52;;;20.70;62.00;;;;;;4878422;29;20404;-63
2022/08/03 00:28:45;;;;;;;4.47;1.77;;;20.60;62.20;;;;;;4874103;29;20041;-63
2022/08/03 00:31:12;;;;;;;3.10;1.50;;;20.60;62.20;;;;;;4872222;29;20044;-63
2022/08/03 00:33:39;;;;;;;2.20;1.38;;;20.60;62.20;;;;;;4877904;29;20104;-64
2022/08/03 00:36:06;;;;;;;3.08;1.80;;;20.60;62.40;;;;;;4864388;29;20053;-63
2022/08/03 00:38:33;;;;;;;3.40;1.73;;;20.60;62.30;;;;;;4872422;29;20080;-62
2022/08/03 00:41:02;;;;;;;3.17;1.52;;;20.60;62.30;;;;;;4874521;29;20045;-63
2022/08/03 00:43:30;;;;;;;2.72;1.58;;;20.60;62.30;;;;;;4872736;29;20110;-62
2022/08/03 00:45:57;;;;;;;3.28;1.40;;;20.60;62.30;;;;;;4872825;29;20053;-63
2022/08/03 00:48:24;;;;;;;2.80;1.63;;;20.50;62.40;;;;;;4870673;29;20045;-63
2022/08/03 00:50:51;;;;;;;5.75;1.75;;;20.50;62.50;;;;;;4874876;29;20513;-63
2022/08/03 00:53:18;;;;;;;4.15;1.42;;;20.50;62.70;;;;;;4872320;29;20584;-62
2022/08/03 00:55:46;;;;;;;2.97;1.42;;;20.40;62.80;;;;;;4872440;29;20048;-63
2022/08/03 00:58:14;;;;;;;3.47;1.80;;;20.40;62.90;;;;;;4868861;29;20055;-64
2022/08/03 01:00:42;;;;;;;4.80;1.75;;;20.40;63.00;;;;;;4870613;29;20048;-63
2022/08/03 01:03:10;;;;;;;3.08;1.50;;;20.40;63.00;;;;;;4867445;29;20041;-62
2022/08/03 01:05:45;;;;;;;2.42;1.42;;;20.40;62.90;;;;;;4873707;29;20049;-62
2022/08/03 01:08:19;;;;;;;3.25;1.67;;;20.30;63.00;;;;;;4873564;29;20499;-63
2022/08/03 01:10:54;;;;;;;2.40;1.40;;;20.30;63.10;;;;;;4862521;29;20049;-62
2022/08/03 01:13:29;;;;;;;4.40;1.55;;;20.20;63.30;;;;;;4870832;29;20044;-63
2022/08/03 01:16:02;;;;;;;2.85;1.40;;;20.20;63.40;;;;;;4867914;29;20048;-63
2022/08/03 01:18:34;;;;;;;3.65;1.52;;;20.20;63.50;;;;;;4873944;29;20049;-63
2022/08/03 01:21:08;;;;;;;2.80;1.55;;;20.20;63.50;;;;;;4872049;29;20041;-63
2022/08/03 01:23:48;;;;;;;2.45;1.63;;;20.10;63.60;;;;;;4870916;29;20044;-63
2022/08/03 01:26:42;;;;;;;3.50;1.50;;;20.10;63.70;;;;;;4866956;29;20049;-63
2022/08/03 01:29:43;;;;;;;3.55;1.38;;;20.10;63.80;;;;;;4870932;29;20072;-62
2022/08/03 01:32:16;;;;;;;3.40;1.70;;;20.10;63.80;;;;;;4868892;29;20431;-63
2022/08/03 01:34:48;;;;;;;4.18;1.45;;;20.00;63.90;;;;;;4870275;29;20071;-63
2022/08/03 01:37:17;;;;;;;3.58;1.50;;;19.90;64.10;;;;;;4868198;29;20042;-62
2022/08/03 01:39:45;;;;;;;4.30;1.85;;;19.90;64.30;;;;;;4876012;29;20058;-63
2022/08/03 01:42:14;;;;;;;4.40;1.98;;;19.90;64.40;;;;;;4870077;29;20053;-63
2022/08/03 01:44:45;;;;;;;3.83;1.93;;;19.80;64.60;;;;;;4879170;29;20047;-62
2022/08/03 01:47:15;;;;;;;5.18;1.75;;;19.70;64.70;;;;;;4876320;29;20045;-63
2022/08/03 01:49:45;;;;;;;4.45;2.00;;;19.70;64.80;;;;;;4874225;29;20122;-63
2022/08/03 01:52:14;;;;;;;3.67;2.33;;;19.70;64.90;;;;;;4874466;29;20071;-64
2022/08/03 01:54:45;;;;;;;4.55;2.00;;;19.70;65.00;;;;;;4877770;29;20589;-64
2022/08/03 01:57:13;;;;;;;2.70;1.80;;;19.60;65.20;;;;;;4880752;29;20057;-62
2022/08/03 01:59:41;;;;;;;5.30;1.80;;;19.60;65.30;;;;;;4871014;29;20056;-63
2022/08/03 02:02:14;;;;;;;4.43;1.60;;;19.60;65.30;;;;;;4872741;29;20581;-63
2022/08/03 02:04:42;;;;;;;2.63;1.55;;;19.60;65.40;;;;;;4880150;29;20510;-62
2022/08/03 02:07:11;;;;;;;4.97;1.73;;;19.60;65.30;;;;;;4882240;29;20048;-63
2022/08/03 02:09:40;;;;;;;2.85;1.55;;;19.60;65.10;;;;;;4871541;29;20053;-63
2022/08/03 02:12:09;;;;;;;3.20;1.48;;;19.60;65.00;;;;;;4876401;29;20124;-63
2022/08/03 02:14:37;;;;;;;3.13;1.70;;;19.60;65.00;;;;;;4874384;29;20089;-63
2022/08/03 02:17:05;;;;;;;4.25;1.50;;;19.50;65.10;;;;;;4876382;29;20047;-63
2022/08/03 02:19:34;;;;;;;3.10;1.70;;;19.50;65.10;;;;;;4869604;29;20042;-62
2022/08/03 02:22:02;;;;;;;2.72;1.60;;;19.50;65.20;;;;;;4876239;29;20108;-62
2022/08/03 02:24:30;;;;;;;3.35;1.63;;;19.50;65.20;;;;;;4879467;29;20045;-62
2022/08/03 02:26:59;;;;;;;3.33;1.67;;;19.40;65.30;;;;;;4878528;29;20049;-63
2022/08/03 02:29:32;;;;;;;2.33;1.33;;;19.40;65.10;;;;;;4869396;29;20041;-63
2022/08/03 02:32:03;;;;;;;2.45;1.40;;;19.40;65.20;;;;;;4874916;29;20060;-65
2022/08/03 02:34:34;;;;;;;3.85;1.63;;;19.40;65.30;;;;;;4877545;29;20041;-63
2022/08/03 02:37:03;;;;;;;2.83;1.63;;;19.30;65.30;;;;;;4879865;29;20037;-64
2022/08/03 02:39:33;;;;;;;4.07;1.83;;;19.20;65.50;;;;;;4880081;29;20041;-63
2022/08/03 02:42:02;;;;;;;3.38;2.00;;;19.20;65.70;;;;;;4872574;29;20053;-63
2022/08/03 02:44:32;;;;;;;6.03;1.70;;;19.20;65.80;;;;;;4875268;29;20041;-61
2022/08/03 02:47:04;;;;;;;3.38;1.50;;;19.20;65.90;;;;;;4876281;29;20045;-64
2022/08/03 02:49:35;;;;;;;3.58;1.92;;;19.30;65.80;;;;;;4874921;29;20049;-62
2022/08/03 02:52:03;;;;;;;3.70;1.88;;;19.20;65.80;;;;;;4870191;29;20045;-62
2022/08/03 02:54:31;;;;;;;3.03;1.60;;;19.20;66.00;;;;;;4870785;29;20449;-63
2022/08/03 02:56:59;;;;;;;4.85;1.65;;;19.10;66.20;;;;;;4875305;29;20159;-62
2022/08/03 02:59:30;;;;;;;3.35;1.65;;;19.10;66.30;;;;;;4873701;29;20049;-64
2022/08/03 03:01:59;;;;;;;2.90;1.35;;;19.30;65.90;;;;;;4872189;29;20504;-62
2022/08/03 03:04:28;;;;;;;3.97;1.42;;;19.30;65.70;;;;;;4873083;29;20048;-62
2022/08/03 03:06:57;;;;;;;3.70;2.22;;;19.20;65.70;;;;;;4876412;29;20131;-63
2022/08/03 03:09:25;;;;;;;3.88;1.67;;;19.20;65.90;;;;;;4875985;29;20056;-62
2022/08/03 03:11:53;;;;;;;7.72;2.20;;;19.10;66.20;;;;;;4862928;29;20053;-62
2022/08/03 03:14:20;;;;;;;3.78;1.67;;;19.10;66.40;;;;;;4886727;29;20419;-61
2022/08/03 03:16:48;;;;;;;4.50;1.45;;;19.00;66.60;;;;;;4875998;29;20059;-61
2022/08/03 03:19:18;;;;;;;4.22;1.90;;;19.00;66.70;;;;;;4871729;29;20049;-64
2022/08/03 03:21:45;;;;;;;2.75;1.63;;;19.00;66.90;;;;;;4880751;29;20120;-63
2022/08/03 03:24:14;;;;;;;3.85;2.17;;;18.90;66.90;;;;;;4879848;29;20041;-63
2022/08/03 03:26:43;;;;;;;2.85;1.75;;;18.80;67.20;;;;;;4875261;29;20142;-64
2022/08/03 03:29:10;;;;;;;3.55;1.67;;;18.80;67.20;;;;;;4877713;29;20049;-60
2022/08/03 03:31:37;;;;;;;2.20;1.38;;;18.90;67.20;;;;;;4877752;29;20124;-63
2022/08/03 03:34:04;;;;;;;3.38;1.80;;;18.80;67.40;;;;;;4872732;29;20060;-61
2022/08/03 03:36:31;;;;;;;2.92;1.70;;;18.80;67.40;;;;;;4875303;29;20053;-61
2022/08/03 03:38:58;;;;;;;3.22;1.52;;;18.80;67.40;;;;;;4877552;29;20064;-62
2022/08/03 03:41:26;;;;;;;2.95;1.70;;;18.80;67.40;;;;;;4867930;29;20135;-61
2022/08/03 03:43:54;;;;;;;3.15;1.58;;;18.80;67.40;;;;;;4873341;29;20057;-62
2022/08/03 03:46:21;;;;;;;3.28;1.98;;;18.70;67.50;;;;;;4873413;29;20057;-63
2022/08/03 03:48:48;;;;;;;5.03;1.60;;;18.70;67.60;;;;;;4872367;29;20037;-62
2022/08/03 03:51:15;;;;;;;3.63;1.83;;;18.70;67.60;;;;;;4869513;29;20061;-64
2022/08/03 03:53:55;;;;;;;4.25;1.55;;;18.70;67.70;;;;;;4869338;29;20524;-62
2022/08/03 03:56:22;;;;;;;2.63;1.48;;;18.70;67.70;;;;;;4874636;29;20072;-63
2022/08/03 03:58:50;;;;;;;3.92;1.73;;;18.70;67.70;;;;;;4872049;29;20049;-62
2022/08/03 04:01:18;;;;;;;5.88;2.53;;;18.60;67.70;;;;;;4876589;29;20051;-62
2022/08/03 04:03:44;;;;;;;4.55;2.30;;;18.60;67.70;;;;;;4870356;29;20053;-63
2022/08/03 04:11:46;;;;;;;3.40;2.03;;;18.50;68.10;;;;;;4870267;29;20061;-62
2022/08/03 04:14:18;;;;;;;4.18;2.35;;;18.50;68.20;;;;;;4871463;29;20049;-63
2022/08/03 04:16:49;;;;;;;3.08;1.60;;;18.50;68.10;;;;;;4866063;29;20064;-61
2022/08/03 04:19:19;;;;;;;4.60;2.25;;;18.50;68.10;;;;;;4873672;29;20052;-63
2022/08/03 04:21:50;;;;;;;3.42;2.00;;;18.50;68.20;;;;;;4870987;29;20045;-62
2022/08/03 04:24:20;;;;;;;5.70;1.80;;;18.50;68.10;;;;;;4878252;29;20053;-63
2022/08/03 04:26:49;;;;;;;;;;;18.50;68.10;;;;;;4879045;29;20072;-61
2022/08/03 04:29:19;;;;;;;4.35;1.80;;;18.40;68.20;;;;;;4870343;29;19935;-63
2022/08/03 04:31:47;;;;;;;3.45;2.10;;;18.50;67.90;;;;;;4873004;29;20068;-63
2022/08/03 04:34:15;;;;;;;3.17;1.80;;;18.50;67.70;;;;;;4878556;29;20053;-62
2022/08/03 04:36:49;;;;;;;3.65;1.90;;;18.60;67.50;;;;;;4875944;29;20043;-63
2022/08/03 04:39:19;;;;;;;2.97;1.75;;;18.60;67.40;;;;;;4875983;29;20056;-64
2022/08/03 04:41:47;;;;;;;;;;;18.60;67.30;;;;;;4879243;29;20044;-62
2022/08/03 04:44:15;;;;;;;3.63;1.80;;;18.60;67.40;;;;;;4878140;29;20042;-62
2022/08/03 04:46:44;;;;;;;4.70;1.73;;;18.60;67.50;;;;;;4876378;29;20045;-63
2022/08/03 04:49:11;;;;;;;4.53;1.95;;;18.50;67.70;;;;;;4877163;29;20037;-62
2022/08/03 04:51:39;;;;;;;5.65;1.98;;;18.50;68.00;;;;;;4878766;29;20065;-63
2022/08/03 04:54:06;;;;;;;4.38;1.90;;;18.50;68.20;;;;;;4878190;29;20053;-62
2022/08/03 04:56:34;;;;;;;3.05;1.60;;;18.40;68.10;;;;;;4873886;29;20057;-62
2022/08/03 04:59:01;;;;;;;3.33;1.77;;;18.50;68.00;;;;;;4875938;29;20053;-63
2022/08/03 05:01:29;;;;;;;3.85;2.30;;;18.50;68.00;;;;;;4872052;29;20064;-62
2022/08/03 05:03:57;;;;;;;3.83;1.90;;;18.60;68.00;;;;;;4876180;29;20053;-63
2022/08/03 05:06:24;;;;;;;3.95;1.67;;;18.60;68.00;;;;;;4871643;29;20140;-63
2022/08/03 05:08:51;;;;;;;3.55;1.95;;;18.60;67.80;;;;;;4871609;29;20471;-61
2022/08/03 05:11:18;;;;;;;3.42;1.50;;;18.60;67.90;;;;;;4875823;29;20369;-63
2022/08/03 05:13:45;;;;;;;3.65;1.70;;;18.60;67.80;;;;;;4874520;29;20041;-63
2022/08/03 05:16:13;;;;;;;4.78;2.10;;;18.60;67.90;;;;;;4870644;29;20049;-62
2022/08/03 05:18:40;;;;;;;3.33;1.95;;;18.60;67.90;;;;;;4871964;29;20056;-63
2022/08/03 05:21:09;;;;;;;3.42;1.70;;;18.60;67.90;;;;;;4873266;29;20624;-62
2022/08/03 05:23:36;;;;;;;2.97;1.70;;;18.60;67.80;;;;;;4877609;29;20637;-63
2022/08/03 05:26:03;;;;;;;3.60;1.85;;;18.70;67.70;;;;;;4874909;29;20436;-64
2022/08/03 05:28:30;;;;;;;3.53;1.60;;;18.70;67.60;;;;;;4873822;29;20044;-63
2022/08/03 05:30:57;;;;;;;3.33;1.80;;;18.80;67.40;;;;;;4865825;29;20041;-62
2022/08/03 05:33:24;;;;;;;4.07;1.67;;;18.80;67.40;;;;;;4875949;29;20045;-62
2022/08/03 05:35:51;;;;;;;3.17;1.85;;;18.80;67.20;;;;;;4877377;29;20060;-63
2022/08/03 05:38:19;;;;;;;3.72;1.80;;;18.90;66.90;;;;;;4874018;29;20556;-63
2022/08/03 05:40:46;;;;;;;3.65;1.60;;;18.90;67.00;;;;;;4873955;29;20049;-61
2022/08/03 05:43:13;;;;;;;4.85;2.03;;;18.90;67.20;;;;;;4874808;29;20049;-61
2022/08/03 05:45:40;;;;;;;5.90;2.78;;;18.80;67.30;;;;;;4870174;29;20049;-63
2022/08/03 05:48:07;;;;;;;7.45;2.22;;;18.90;67.10;;;;;;4871463;29;20041;-64
2022/08/03 05:50:35;;;;;;;3.63;1.58;;;18.90;67.10;;;;;;4874994;29;20056;-63
2022/08/03 05:53:02;;;;;;;4.68;1.80;;;19.00;67.00;;;;;;4872213;29;20055;-63
2022/08/03 05:55:31;;;;;;;3.17;1.70;;;19.10;66.90;;;;;;4873530;29;20041;-63
2022/08/03 05:57:58;;;;;;;4.15;1.70;;;19.00;67.30;;;;;;4872853;29;20056;-63
2022/08/03 06:00:25;;;;;;;3.70;1.63;;;19.00;67.30;;;;;;4873688;29;20049;-63
2022/08/03 06:02:51;;;;;;;3.25;1.90;;;19.00;67.10;;;;;;4875878;29;20045;-61
2022/08/03 06:05:18;;;;;;;3.67;1.55;;;19.10;67.10;;;;;;4872495;29;20057;-62
2022/08/03 06:07:46;;;;;;;5.35;1.60;;;19.10;66.70;;;;;;4872993;29;20081;-62
2022/08/03 06:10:13;;;;;;;4.25;1.60;;;19.10;66.50;;;;;;4875575;29;20480;-63
2022/08/03 06:12:41;;;;;;;5.40;1.65;;;19.20;66.20;;;;;;4872938;29;20524;-64
2022/08/03 06:15:09;;;;;;;3.53;1.70;;;19.30;65.90;;;;;;4870598;29;20049;-61
2022/08/03 06:17:45;;;;;;;3.63;1.70;;;19.30;65.80;;;;;;4873609;29;20105;-63
2022/08/03 06:20:12;;;;;;;2.30;1.25;;;19.40;65.70;;;;;;4872258;29;20047;-61
2022/08/03 06:22:39;;;;;;;4.45;1.60;;;19.40;65.70;;;;;;4870093;29;20047;-62
2022/08/03 06:25:07;;;;;;;3.85;1.60;;;19.40;65.40;;;;;;4873164;29;20567;-65
2022/08/03 06:27:35;;;;;;;2.90;1.42;;;19.50;65.50;;;;;;4876013;29;20490;-63
2022/08/03 06:30:04;;;;;;;5.38;1.75;;;19.50;65.40;;;;;;4870897;29;20069;-62
2022/08/03 06:32:31;;;;;;;3.67;1.60;;;19.60;65.10;;;;;;4872872;29;20045;-64
2022/08/03 06:34:57;;;;;;;2.65;1.60;;;19.60;65.40;;;;;;4876263;29;20049;-62
2022/08/03 06:37:25;;;;;;;3.72;1.55;;;19.70;65.30;;;;;;4872912;29;20060;-62
2022/08/03 06:39:53;;;;;;;2.17;1.40;;;19.90;65.50;;;;;;4872821;29;20066;-64
2022/08/03 06:42:20;;;;;;;3.72;1.45;;;20.00;65.20;;;;;;4873454;29;21552;-61
2022/08/03 06:44:47;;;;;;;2.85;1.40;;;20.10;65.20;;;;;;4875834;29;20045;-62
2022/08/03 06:47:16;;;;;;;4.40;1.85;;;20.20;65.20;;;;;;4873896;29;20040;-63
2022/08/03 06:49:42;;;;;;;4.43;1.90;;;20.30;64.90;;;;;;4874553;29;20063;-64
2022/08/03 06:52:09;;;;;;;2.72;1.50;;;20.40;64.70;;;;;;4874404;29;20052;-61
2022/08/03 06:54:37;;;;;;;5.20;2.28;;;20.60;64.50;;;;;;4877846;29;20594;-62
2022/08/03 06:57:06;;;;;;;3.72;1.88;;;20.70;64.70;;;;;;4873720;29;20064;-60
2022/08/03 06:59:34;;;;;;;4.72;1.85;;;20.80;64.50;;;;;;4871760;29;20480;-61
2022/08/03 07:02:01;;;;;;;5.75;2.53;;;20.90;64.40;;;;;;4869944;29;20080;-62
2022/08/03 07:04:30;;;;;;;3.95;2.30;;;21.10;64.20;;;;;;4870970;29;20601;-62
2022/08/03 07:06:57;;;;;;;4.20;1.98;;;21.20;64.30;;;;;;4876719;29;20053;-61
2022/08/03 07:09:25;;;;;;;6.05;2.05;;;21.40;63.80;;;;;;4871760;29;20503;-63
2022/08/03 07:11:52;;;;;;;4.35;1.70;;;21.60;63.70;;;;;;4871412;29;20045;-61
2022/08/03 07:14:19;;;;;;;4.80;2.08;;;21.70;63.50;;;;;;4876654;29;20045;-63
2022/08/03 07:16:46;;;;;;;3.72;1.70;;;21.90;62.60;;;;;;4869502;29;20096;-63
2022/08/03 07:19:14;;;;;;;3.70;1.92;;;22.10;62.60;;;;;;4872616;29;20041;-64
2022/08/03 07:21:42;;;;;;;3.42;1.80;;;22.20;62.60;;;;;;4871634;29;20033;-64
2022/08/03 07:24:09;;;;;;;3.47;1.55;;;22.40;61.90;;;;;;4872897;29;20040;-62
2022/08/03 07:26:37;;;;;;;2.58;1.48;;;22.60;61.60;;;;;;4863886;29;20480;-62
2022/08/03 07:29:04;;;;;;;2.88;1.60;;;22.80;61.00;;;;;;4868308;29;20530;-63
2022/08/03 07:31:31;;;;;;;3.17;1.38;;;22.90;60.10;;;;;;4875673;29;20072;-64
2022/08/03 07:33:58;;;;;;;2.33;1.17;;;23.10;59.70;;;;;;4872473;29;20061;-65
2022/08/03 07:36:25;;;;;;;2.90;1.20;;;23.20;58.10;;;;;;4868739;29;20046;-63
2022/08/03 07:38:54;;;;;;;4.18;1.80;;;23.40;57.70;;;;;;4870248;29;20564;-62
2022/08/03 07:41:21;;;;;;;1.98;1.33;;;23.60;57.20;;;;;;4873920;29;20037;-64
2022/08/03 07:43:48;;;;;;;2.28;1.33;;;23.70;57.00;;;;;;4873740;29;20067;-63
2022/08/03 07:46:15;;;;;;;2.63;1.30;;;24.00;56.80;;;;;;4872223;29;20049;-64
2022/08/03 07:48:42;;;;;;;3.13;1.42;;;24.10;56.70;;;;;;4875455;29;20107;-63
2022/08/03 07:51:09;;;;;;;6.00;1.40;;;24.30;55.80;;;;;;4873392;29;20049;-62
2022/08/03 07:53:36;;;;;;;2.97;1.40;;;24.50;55.60;;;;;;4877599;29;20124;-62
2022/08/03 07:56:05;;;;;;;3.22;1.48;;;24.60;54.70;;;;;;4876994;29;20053;-62
2022/08/03 07:58:32;;;;;;;2.92;1.52;;;24.80;54.40;;;;;;4875113;29;20167;-63
2022/08/03 08:00:59;;;;;;;4.88;1.17;;;24.80;53.80;;;;;;4871690;29;20052;-64
2022/08/03 08:03:26;;;;;;;3.13;1.25;;;25.10;53.00;;;;;;4874978;29;20053;-63
2022/08/03 08:05:53;;;;;;;2.28;1.30;;;25.10;52.60;;;;;;4871026;29;20402;-62
2022/08/03 08:08:20;;;;;;;4.45;1.25;;;25.30;53.50;;;;;;4873104;29;20049;-63
2022/08/03 08:10:48;;;;;;;3.60;1.25;;;25.40;52.90;;;;;;4877881;29;20514;-63
2022/08/03 08:13:16;;;;;;;1.95;1.17;;;25.60;52.00;;;;;;4870999;29;20384;-62
2022/08/03 08:15:43;;;;;;;2.83;1.17;;;25.70;51.90;;;;;;4870759;29;20052;-62
2022/08/03 08:18:11;;;;;;;2.33;1.38;;;25.80;51.60;;;;;;4870282;29;20165;-62
2022/08/03 08:20:38;;;;;;;3.28;1.00;;;25.90;52.10;;;;;;4873689;29;20080;-63
2022/08/03 08:23:07;;;;;;;2.00;1.20;;;26.10;51.20;;;;;;4871172;29;20037;-64
2022/08/03 08:25:34;;;;;;;3.25;1.48;;;26.20;50.80;;;;;;4873013;29;20487;-62
2022/08/03 08:28:03;;;;;;;4.88;1.20;;;26.30;50.80;;;;;;4871782;29;20411;-64
2022/08/03 08:30:33;;;;;;;3.38;1.10;;;26.40;50.90;;;;;;4872109;29;20040;-62
2022/08/03 08:33:00;;;;;;;2.67;1.40;;;26.50;50.80;;;;;;4875787;29;20053;-62
2022/08/03 08:35:27;;;;;;;3.35;1.42;;;26.60;50.10;;;;;;4876390;29;20060;-62
2022/08/03 08:37:54;;;;;;;2.28;0.95;;;26.80;49.60;;;;;;4873654;29;20056;-62
2022/08/03 08:40:23;;;;;;;1.70;1.10;;;27.00;49.40;;;;;;4871918;29;20412;-62
2022/08/03 08:42:50;;;;;;;1.67;1.27;;;27.10;49.50;;;;;;4871518;29;20061;-62
2022/08/03 08:45:18;;;;;;;3.13;1.10;;;27.20;48.60;;;;;;4870011;29;20049;-63
2022/08/03 08:47:48;;;;;;;2.80;1.10;;;27.30;49.10;;;;;;4874441;29;20056;-62
2022/08/03 08:50:19;;;;;;;1.63;1.17;;;27.40;47.10;;;;;;4876534;29;20064;-63
2022/08/03 08:52:47;;;;;;;3.10;1.25;;;27.50;47.30;;;;;;4876326;29;20463;-62
2022/08/03 08:55:20;;;;;;;1.83;1.10;;;27.60;46.70;;;;;;4869598;29;20399;-63
2022/08/03 08:57:50;;;;;;;2.63;0.80;;;27.70;47.00;;;;;;4872696;29;20486;-61
2022/08/03 09:00:18;;;;;;;1.77;0.90;;;27.70;46.60;;;;;;4872084;29;20101;-64
2022/08/03 09:02:48;;;;;;;3.25;1.17;;;27.80;46.50;;;;;;4872338;29;20132;-63
2022/08/03 09:05:17;;;;;;;1.65;1.08;;;28.00;44.90;;;;;;4874208;29;20518;-64
2022/08/03 09:07:44;;;;;;;;;;;28.10;44.50;;;;;;4874606;29;20053;-62
2022/08/03 09:10:12;;;;;;;1.50;0.90;;;28.10;44.70;;;;;;4873904;29;19939;-64
2022/08/03 09:12:42;;;;;;;1.80;1.30;;;28.30;44.80;;;;;;4865192;29;20689;-63
2022/08/03 09:15:20;;;;;;;1.50;0.90;;;28.30;45.10;;;;;;4868871;29;20053;-62
2022/08/03 09:17:49;;;;;;;2.37;1.10;;;28.40;44.60;;;;;;4870582;29;20136;-63
2022/08/03 09:20:16;;;;;;;1.88;1.00;;;28.50;44.40;;;;;;4875558;29;20052;-63
2022/08/03 09:22:56;;;;;;;1.33;0.90;;;28.60;44.10;;;;;;4869142;29;20041;-62
2022/08/03 09:25:32;;;;;;;2.47;1.10;;;28.80;43.70;;;;;;4871990;29;20401;-65
2022/08/03 09:28:10;;;;;;;1.77;1.00;;;28.90;43.20;;;;;;4873260;29;20065;-62
2022/08/03 09:30:38;;;;;;;1.48;1.00;;;29.00;43.20;;;;;;4874606;29;20056;-66
2022/08/03 09:33:07;;;;;;;2.73;1.03;;;29.00;43.20;;;;;;4872695;29;20056;-63
2022/08/03 09:35:41;;;;;;;2.40;1.08;;;29.10;42.70;;;;;;4870016;29;20044;-62
2022/08/03 09:38:18;;;;;;;1.23;0.82;;;29.20;42.10;;;;;;4871760;29;20504;-62
2022/08/03 09:40:46;;;;;;;3.70;1.08;;;29.30;42.10;;;;;;4869435;29;20041;-62
2022/08/03 09:43:13;;;;;;;3.05;1.10;;;29.40;41.50;;;;;;4874392;29;20045;-63
2022/08/03 09:45:40;;;;;;;1.48;1.10;;;29.50;41.30;;;;;;4869831;29;20045;-63
2022/08/03 09:48:28;;;;;;;2.25;1.50;;;29.60;41.10;;;;;;4874746;29;20048;-64
2022/08/03 09:50:56;;;;;;;2.78;1.30;;;29.70;41.20;;;;;;4869189;29;20110;-62
2022/08/03 09:53:25;;;;;;;4.10;1.98;;;29.80;41.20;;;;;;4871157;29;20133;-62
2022/08/03 09:55:53;;;;;;;2.90;1.50;;;29.80;41.10;;;;;;4873867;29;20075;-63
2022/08/03 09:58:22;;;;;;;5.53;2.28;;;29.90;40.60;;;;;;4870505;29;20040;-64
2022/08/03 10:00:57;;;;;;;4.07;2.38;;;30.10;40.40;;;;;;4872570;29;20199;-62
2022/08/03 10:03:27;;;;;;;5.82;2.95;;;30.20;39.80;;;;;;4869717;29;20057;-63
2022/08/03 10:05:54;;;;;;;5.70;2.85;;;30.30;39.50;;;;;;4867055;29;20052;-63
2022/08/03 10:08:21;;;;;;;4.97;2.80;;;30.30;39.80;;;;;;4879468;29;20124;-62
2022/08/03 10:10:52;;;;;;;3.85;2.40;;;30.40;39.40;;;;;;4877411;29;20445;-62
2022/08/03 10:13:20;;;;;;;5.65;2.78;;;30.50;38.60;;;;;;4875437;29;20049;-63
2022/08/03 10:15:47;;;;;;;5.18;2.38;;;30.60;38.90;;;;;;4867505;29;20564;-62
2022/08/03 10:18:14;;;;;;;3.25;1.80;;;30.60;39.20;;;;;;4877587;29;20076;-62
2022/08/03 10:20:46;;;;;;;4.40;2.17;;;30.60;39.20;;;;;;4874830;29;20041;-62
2022/08/03 10:23:16;;;;;;;6.93;4.18;;;30.70;39.20;;;;;;4874287;29;20126;-64
2022/08/03 10:25:47;;;;;;;6.90;3.95;;;30.80;38.90;;;;;;4878179;29;20052;-63
2022/08/03 10:28:18;;;;;;;4.45;2.20;;;30.80;39.10;;;;;;4877878;29;20137;-62
2022/08/03 10:30:50;;;;;;;5.25;2.15;;;30.80;39.10;;;;;;4874586;29;20411;-62
2022/08/03 10:33:20;;;;;;;3.15;1.70;;;30.90;38.40;;;;;;4884895;29;20054;-62
2022/08/03 10:35:54;;;;;;;3.28;1.70;;;30.90;38.90;;;;;;4873663;29;20048;-64
2022/08/03 10:38:27;;;;;;;3.42;1.70;;;31.00;38.10;;;;;;4872968;29;20052;-62
2022/08/03 10:40:55;;;;;;;4.07;2.03;;;31.00;38.50;;;;;;4875502;29;20061;-64
2022/08/03 10:43:33;;;;;;;4.45;1.73;;;31.00;38.30;;;;;;4872532;29;20052;-62
2022/08/03 10:46:02;;;;;;;4.47;2.10;;;31.10;38.30;;;;;;4866062;29;20056;-63
2022/08/03 10:48:30;;;;;;;2.97;1.60;;;31.20;38.40;;;;;;4875141;29;20100;-63
2022/08/03 10:50:58;;;;;;;4.37;2.40;;;31.30;38.50;;;;;;4874009;29;20049;-62
2022/08/03 10:53:35;;;;;;;5.05;1.98;;;31.40;38.40;;;;;;4873318;29;20416;-64
2022/08/03 10:58:49;;;;;;;2.78;1.58;;;31.60;37.70;;;;;;4875184;29;20045;-63
2022/08/03 11:01:16;;;;;;;;;;;31.60;37.40;;;;;;4870698;29;20110;-62
2022/08/03 11:04:20;;;;;;;4.10;1.50;;;31.70;37.30;;;;;;4874728;29;19934;-63
2022/08/03 11:07:08;;;;;;;2.63;1.58;;;31.70;37.50;;;;;;4873600;29;20052;-62
2022/08/03 11:09:40;;;;;;;;;;;31.60;37.30;;;;;;4876189;29;20033;-62
2022/08/03 11:12:20;;;;;;;;;;;31.60;37.00;;;;;;4878194;29;19934;-64
2022/08/03 11:14:47;;;;;;;;;;;31.60;36.70;;;;;;4869401;29;19984;-63
2022/08/03 11:17:14;;;;;;;;;;;31.60;36.90;;;;;;4876134;29;19999;-61
2022/08/03 11:19:43;;;;;;;;;;;31.70;36.70;;;;;;4877565;29;20445;-63
2022/08/03 11:22:12;;;;;;;;;;;31.70;36.90;;;;;;4877629;29;19928;-64
2022/08/03 11:24:58;;;;;;;;;;;31.70;37.30;;;;;;4875921;29;19966;-62
2022/08/03 11:27:26;;;;;;;;;;;31.60;37.30;;;;;;4880194;29;19931;-62
2022/08/03 11:29:57;;;;;;;;;;;31.70;37.30;;;;;;4877373;29;19931;-62
2022/08/03 11:32:43;;;;;;;;;;;31.70;36.80;;;;;;4873736;29;20012;-62
2022/08/03 11:35:10;;;;;;;;;;;31.80;36.80;;;;;;4873013;29;19927;-62
2022/08/03 11:37:59;;;;;;;;;;;31.80;36.90;;;;;;4873021;29;19934;-62
2022/08/03 11:40:32;;;;;;;;;;;31.80;36.70;;;;;;4874540;29;19927;-62
2022/08/03 11:42:59;;;;;;;;;;;31.80;36.60;;;;;;4877560;29;19924;-62
2022/08/03 11:45:26;;;;;;;;;;;31.80;36.30;;;;;;4879255;29;19959;-62
2022/08/03 11:47:54;;;;;;;;;;;31.90;36.20;;;;;;4876818;29;19930;-62
2022/08/03 11:50:21;;;;;;;;;;;31.90;36.30;;;;;;4875852;29;20394;-62
2022/08/03 11:52:49;;;;;;;;;;;32.00;36.00;;;;;;4876393;29;19934;-63
2022/08/03 11:55:19;;;;;;;;;;;32.10;35.80;;;;;;4872664;29;19924;-63
2022/08/03 11:57:46;;;;;;;;;;;32.10;35.80;;;;;;4875523;29;19923;-63
2022/08/03 12:00:20;;;;;;;;;;;32.20;35.80;;;;;;4872908;29;19924;-64
2022/08/03 12:02:54;;;;;;;;;;;32.30;36.10;;;;;;4873461;29;19924;-62
2022/08/03 12:05:20;;;;;;;;;;;32.30;36.10;;;;;;4875836;29;19928;-63
2022/08/03 12:07:47;;;;;;;;;;;32.20;35.90;;;;;;4884588;29;19934;-63
2022/08/03 12:10:15;;;;;;;;;;;32.20;35.70;;;;;;4876975;29;20397;-63
2022/08/03 12:12:43;;;;;;;;;;;32.20;35.40;;;;;;4875349;29;19927;-63
2022/08/03 12:15:10;;;;;;;;;;;32.30;35.00;;;;;;4870271;29;19924;-63
2022/08/03 12:17:38;;;;;;;;;;;32.30;35.50;;;;;;4871944;29;19924;-64
2022/08/03 12:20:06;;;;;;;;;;;32.30;35.60;;;;;;4875113;29;19972;-63
2022/08/03 12:22:33;;;;;;;;;;;32.50;34.90;;;;;;4871928;29;20048;-63
2022/08/03 12:24:59;;;;;;;;;;;32.50;35.30;;;;;;4871851;29;19930;-63
2022/08/03 12:27:28;;;;;;;;;;;32.50;35.10;;;;;;4874437;29;20378;-63
2022/08/03 12:29:56;;;;;;;;;;;32.30;35.60;;;;;;4872567;29;19963;-63
2022/08/03 12:32:24;;;;;;;;;;;32.30;35.40;;;;;;4874795;29;20358;-61
2022/08/03 12:34:51;;;;;;;;;;;32.30;35.90;;;;;;4874795;29;19924;-64
2022/08/03 12:37:19;;;;;;;;;;;32.20;35.60;;;;;;4871252;29;19923;-61
2022/08/03 12:39:49;;;;;;;;;;;32.20;35.90;;;;;;4876548;29;19930;-62
2022/08/03 12:42:16;;;;;;;;;;;32.20;36.00;;;;;;4878884;29;19976;-62
2022/08/03 12:44:45;;;;;;;;;;;32.30;35.30;;;;;;4878152;29;19959;-63
2022/08/03 12:47:12;;;;;;;;;;;32.40;35.90;;;;;;4872996;29;19924;-65
2022/08/03 12:49:45;;;;;;;;;;;32.30;35.90;;;;;;4876663;29;19934;-63
2022/08/03 12:52:11;;;;;;;;;;;32.30;36.00;;;;;;4876130;29;19946;-63
2022/08/03 12:54:38;;;;;;;;;;;32.30;36.40;;;;;;4876172;29;19923;-62
2022/08/03 12:57:06;;;;;;;;;;;32.20;35.80;;;;;;4872640;29;19939;-62
2022/08/03 12:59:34;;;;;;;;;;;32.20;36.10;;;;;;4874210;29;20062;-62
2022/08/03 13:02:02;;;;;;;;;;;32.20;35.80;;;;;;4869003;29;19927;-62
2022/08/03 13:04:30;;;;;;;;;;;32.20;35.20;;;;;;4865174;29;19928;-62
2022/08/03 13:06:58;;;;;;;;;;;32.20;36.70;;;;;;4872640;29;19927;-62
2022/08/03 13:09:25;;;;;;;;;;;32.10;36.10;;;;;;4868296;29;19934;-62
2022/08/03 13:12:04;;;;;;;;;;;32.20;35.60;;;;;;4871560;29;19930;-61
2022/08/03 13:14:31;;;;;;;;;;;32.10;35.80;;;;;;4874991;29;20018;-61
2022/08/03 13:16:58;;;;;;;;;;;31.80;35.90;;;;;;4870431;29;20354;-62
2022/08/03 13:19:26;;;;;;;;;;;31.90;35.20;;;;;;4870798;29;20286;-63
2022/08/03 13:21:52;;;;;;;;;;;31.80;36.20;;;;;;4874168;29;19927;-62